createdAt,value
2022-09-28T00:00:10.068Z,52.20
2022-09-28T00:03:00.534Z,52.40
2022-09-28T00:05:48.939Z,52.40
2022-09-28T00:08:37.611Z,52.40
2022-09-28T00:11:27.412Z,52.40
2022-09-28T00:14:15.520Z,52.40
2022-09-28T00:17:02.879Z,52.40
2022-09-28T00:19:50.025Z,52.40
2022-09-28T00:22:38.853Z,52.30
2022-09-28T00:25:26.056Z,52.40
2022-09-28T00:28:13.046Z,52.40
2022-09-28T00:31:01.202Z,52.40
2022-09-28T00:33:51.895Z,52.50
2022-09-28T00:36:39.355Z,52.50
2022-09-28T00:39:28.151Z,52.50
2022-09-28T00:42:18.790Z,52.60
2022-09-28T00:45:08.765Z,52.60
2022-09-28T00:48:00.337Z,52.70
2022-09-28T00:50:47.779Z,52.70
2022-09-28T00:53:39.180Z,52.70
2022-09-28T00:56:31.925Z,52.80
2022-09-28T00:59:19.263Z,52.90
2022-09-28T01:02:06.469Z,52.80
2022-09-28T01:04:54.441Z,52.90
2022-09-28T01:07:42.669Z,52.90
2022-09-28T01:10:31.561Z,53.00
2022-09-28T01:13:22.847Z,53.10
2022-09-28T01:16:18.127Z,53.10
2022-09-28T01:19:23.292Z,53.20
2022-09-28T01:22:29.554Z,53.20
2022-09-28T01:25:26.689Z,53.30
2022-09-28T01:28:18.540Z,53.20
2022-09-28T01:31:11.255Z,53.20
2022-09-28T01:34:05.294Z,53.20
2022-09-28T01:36:56.537Z,53.30
2022-09-28T01:39:48.335Z,53.20
2022-09-28T01:42:38.578Z,53.30
2022-09-28T01:45:31.108Z,53.30
2022-09-28T01:48:25.274Z,53.40
2022-09-28T01:51:19.590Z,53.40
2022-09-28T01:54:13.431Z,53.40
2022-09-28T01:57:11.355Z,54.00
2022-09-28T02:00:05.196Z,53.40
2022-09-28T02:03:08.272Z,53.50
2022-09-28T02:06:06.036Z,53.40
2022-09-28T02:08:57.909Z,53.30
2022-09-28T02:11:59.173Z,54.00
2022-09-28T02:14:50.824Z,53.40
2022-09-28T02:17:38.096Z,53.30
2022-09-28T02:20:27.842Z,53.40
2022-09-28T02:23:16.320Z,53.50
2022-09-28T02:26:08.367Z,53.40
2022-09-28T02:28:56.491Z,53.40
2022-09-28T02:31:44.077Z,53.20
2022-09-28T02:34:31.630Z,53.20
2022-09-28T02:37:20.210Z,53.20
2022-09-28T02:40:16.180Z,53.10
2022-09-28T02:43:15.947Z,53.20
2022-09-28T02:46:19.007Z,53.20
2022-09-28T02:49:25.802Z,53.10
2022-09-28T02:52:49.056Z,53.30
2022-09-28T02:55:53.790Z,53.30
2022-09-28T02:58:51.431Z,53.20
2022-09-28T03:01:51.954Z,53.10
2022-09-28T03:04:46.008Z,53.10
2022-09-28T03:07:48.038Z,53.00
2022-09-28T03:10:41.008Z,53.10
2022-09-28T03:13:29.852Z,53.00
2022-09-28T03:16:19.699Z,53.00
2022-09-28T03:19:09.114Z,53.10
2022-09-28T03:21:56.388Z,53.00
2022-09-28T03:24:44.816Z,53.10
2022-09-28T03:27:31.968Z,53.10
2022-09-28T03:30:19.375Z,53.20
2022-09-28T03:33:07.450Z,53.20
2022-09-28T03:35:54.421Z,53.40
2022-09-28T03:38:41.607Z,53.30
2022-09-28T03:41:30.052Z,53.20
2022-09-28T03:44:17.025Z,53.20
2022-09-28T03:47:04.177Z,53.30
2022-09-28T03:49:51.277Z,53.30
2022-09-28T03:52:38.352Z,53.30
2022-09-28T03:55:25.439Z,53.30
2022-09-28T03:58:14.162Z,53.40
2022-09-28T04:01:07.404Z,53.30
2022-09-28T04:03:56.255Z,53.50
2022-09-28T04:06:44.060Z,53.40
2022-09-28T04:09:31.362Z,53.40
2022-09-28T04:12:18.569Z,53.30
2022-09-28T04:15:08.401Z,53.40
2022-09-28T04:17:55.704Z,53.60
2022-09-28T04:21:17.741Z,53.60
2022-09-28T04:24:11.753Z,53.50
2022-09-28T04:27:19.050Z,53.60
2022-09-28T04:30:08.316Z,53.50
2022-09-28T04:32:56.300Z,53.50
2022-09-28T04:35:43.466Z,53.50
2022-09-28T04:38:51.324Z,53.40
2022-09-28T04:41:38.335Z,53.40
2022-09-28T04:44:25.406Z,53.40
2022-09-28T04:47:19.917Z,53.40
2022-09-28T04:50:25.914Z,53.40
2022-09-28T04:53:32.084Z,53.40
2022-09-28T04:56:20.493Z,53.40
2022-09-28T04:59:07.693Z,53.50
2022-09-28T05:01:56.757Z,53.40
2022-09-28T05:05:10.018Z,53.40
2022-09-28T05:08:05.780Z,53.40
2022-09-28T05:10:59.057Z,53.30
2022-09-28T05:13:48.528Z,53.40
2022-09-28T05:16:36.750Z,53.30
2022-09-28T05:19:42.162Z,53.30
2022-09-28T05:22:30.683Z,53.40
2022-09-28T05:25:17.987Z,53.30
2022-09-28T05:28:27.591Z,53.30
2022-09-28T05:31:52.857Z,53.30
2022-09-28T05:35:01.222Z,53.30
2022-09-28T05:38:05.483Z,53.30
2022-09-28T05:40:53.922Z,53.30
2022-09-28T05:43:41.911Z,53.40
2022-09-28T05:46:29.356Z,53.30
2022-09-28T05:49:19.617Z,53.30
2022-09-28T05:52:07.573Z,53.30
2022-09-28T05:54:59.704Z,53.40
2022-09-28T05:57:47.066Z,53.30
2022-09-28T06:00:36.590Z,53.30
2022-09-28T06:03:23.887Z,53.30
2022-09-28T06:06:11.154Z,53.40
2022-09-28T06:08:59.915Z,53.40
2022-09-28T06:11:59.355Z,53.40
2022-09-28T06:15:07.312Z,53.50
2022-09-28T06:17:58.754Z,53.40
2022-09-28T06:21:18.152Z,53.40
2022-09-28T06:24:07.007Z,53.40
2022-09-28T06:26:57.528Z,53.40
2022-09-28T06:29:45.708Z,53.40
2022-09-28T06:32:33.001Z,53.30
2022-09-28T06:35:20.679Z,53.90
2022-09-28T06:38:08.090Z,53.30
2022-09-28T06:40:55.516Z,53.20
2022-09-28T06:43:46.153Z,53.30
2022-09-28T06:46:33.210Z,53.30
2022-09-28T06:49:42.725Z,53.30
2022-09-28T06:52:29.720Z,53.20
2022-09-28T06:55:36.488Z,53.30
2022-09-28T06:58:24.631Z,53.30
2022-09-28T07:01:13.116Z,53.30
2022-09-28T07:04:11.390Z,53.30
2022-09-28T07:07:17.578Z,53.30
2022-09-28T07:10:22.183Z,53.30
2022-09-28T07:13:48.618Z,53.30
2022-09-28T07:17:05.920Z,53.20
2022-09-28T07:19:52.706Z,53.20
2022-09-28T07:22:43.444Z,53.30
2022-09-28T07:25:38.223Z,53.40
2022-09-28T07:28:43.094Z,53.30
2022-09-28T07:32:00.872Z,53.40
2022-09-28T07:34:52.480Z,53.50
2022-09-28T07:38:02.583Z,53.50
2022-09-28T07:41:08.927Z,53.70
2022-09-28T07:43:59.051Z,53.70
2022-09-28T07:46:46.692Z,53.70
2022-09-28T07:49:51.269Z,53.90
2022-09-28T07:52:58.644Z,53.80
2022-09-28T07:55:52.869Z,53.80
2022-09-28T07:59:00.103Z,53.80
2022-09-28T08:02:00.078Z,53.80
2022-09-28T08:04:50.074Z,53.80
2022-09-28T08:07:38.353Z,53.70
2022-09-28T08:10:28.972Z,53.50
2022-09-28T08:13:34.737Z,53.40
2022-09-28T08:16:57.144Z,53.30
2022-09-28T08:20:32.581Z,53.00
2022-09-28T08:23:20.365Z,53.00
2022-09-28T08:26:10.072Z,53.00
2022-09-28T08:29:00.048Z,53.00
2022-09-28T08:32:13.563Z,53.00
2022-09-28T08:35:36.830Z,52.90
2022-09-28T08:38:40.356Z,52.90
2022-09-28T08:42:13.498Z,52.90
2022-09-28T08:45:24.731Z,52.80
2022-09-28T08:49:13.373Z,52.60
2022-09-28T08:52:23.600Z,52.60
2022-09-28T08:55:32.660Z,51.90
2022-09-28T08:58:25.277Z,52.10
2022-09-28T09:01:19.018Z,52.20
2022-09-28T09:04:08.693Z,52.30
2022-09-28T09:07:32.891Z,52.30
2022-09-28T09:10:51.287Z,52.20
2022-09-28T09:14:27.389Z,52.50
2022-09-28T09:17:24.555Z,52.50
2022-09-28T09:20:35.349Z,52.40
2022-09-28T09:23:38.432Z,52.40
2022-09-28T09:26:39.267Z,52.20
2022-09-28T09:29:58.568Z,52.40
2022-09-28T09:33:31.341Z,52.40
2022-09-28T09:37:07.187Z,52.30
2022-09-28T09:40:33.412Z,52.50
2022-09-28T09:44:53.079Z,52.40
2022-09-28T09:47:44.513Z,52.40
2022-09-28T09:50:50.599Z,52.50
2022-09-28T09:53:43.481Z,52.50
2022-09-28T09:56:40.790Z,52.60
2022-09-28T09:59:39.207Z,52.80
2022-09-28T10:02:36.800Z,52.70
2022-09-28T10:05:36.023Z,52.70
2022-09-28T10:08:25.322Z,52.60
2022-09-28T10:11:18.171Z,52.60
2022-09-28T10:14:17.244Z,52.70
2022-09-28T10:17:18.254Z,52.70
2022-09-28T10:20:39.630Z,52.50
2022-09-28T10:23:39.153Z,52.40
2022-09-28T10:26:31.643Z,52.60
2022-09-28T10:29:25.056Z,52.80
2022-09-28T10:32:25.309Z,52.80
2022-09-28T10:35:25.851Z,52.50
2022-09-28T10:38:24.518Z,52.50
2022-09-28T10:41:26.149Z,52.20
2022-09-28T10:44:20.641Z,52.00
2022-09-28T10:47:24.680Z,52.50
2022-09-28T10:50:22.785Z,51.80
2022-09-28T10:53:21.181Z,52.20
2022-09-28T10:56:36.721Z,52.50
2022-09-28T10:59:40.748Z,52.20
2022-09-28T11:02:48.664Z,51.80
2022-09-28T11:05:43.299Z,52.00
2022-09-28T11:08:38.876Z,52.30
2022-09-28T11:11:29.481Z,52.40
2022-09-28T11:14:38.368Z,52.20
2022-09-28T11:17:38.675Z,52.30
2022-09-28T11:20:36.531Z,52.20
2022-09-28T11:23:31.830Z,51.50
2022-09-28T11:26:39.195Z,52.00
2022-09-28T11:29:37.144Z,51.80
2022-09-28T11:32:49.042Z,51.90
2022-09-28T11:35:53.032Z,51.90
2022-09-28T11:38:46.176Z,51.80
2022-09-28T11:42:04.132Z,51.60
2022-09-28T11:45:06.405Z,51.70
2022-09-28T11:48:00.623Z,51.60
2022-09-28T11:50:52.898Z,51.60
2022-09-28T11:53:45.123Z,51.40
2022-09-28T11:56:39.424Z,51.50
2022-09-28T11:59:33.289Z,51.40
2022-09-28T12:02:26.921Z,51.40
2022-09-28T12:05:29.799Z,51.30
2022-09-28T12:08:25.563Z,51.30
2022-09-28T12:11:33.884Z,51.20
2022-09-28T12:14:42.371Z,51.30
2022-09-28T12:17:37.613Z,51.30
2022-09-28T12:20:30.744Z,51.30
2022-09-28T12:23:22.155Z,51.30
2022-09-28T12:26:27.248Z,51.20
2022-09-28T12:29:19.748Z,51.30
2022-09-28T12:32:15.897Z,51.40
2022-09-28T12:35:03.432Z,51.40
2022-09-28T12:38:23.261Z,51.40
2022-09-28T12:41:24.960Z,51.40
2022-09-28T12:44:46.731Z,51.40
2022-09-28T12:48:13.163Z,51.50
2022-09-28T12:51:13.824Z,51.50
2022-09-28T12:54:19.470Z,51.50
2022-09-28T12:57:32.203Z,50.70
2022-09-28T13:00:23.522Z,51.40
2022-09-28T13:03:51.481Z,51.50
2022-09-28T13:06:49.345Z,51.50
2022-09-28T13:09:50.950Z,51.00
2022-09-28T13:13:12.069Z,51.40
2022-09-28T13:16:06.199Z,51.50
2022-09-28T13:19:03.335Z,51.60
2022-09-28T13:22:00.513Z,51.60
2022-09-28T13:24:50.536Z,51.50
2022-09-28T13:27:42.372Z,51.60
2022-09-28T13:30:30.302Z,51.40
2022-09-28T13:33:24.623Z,51.60
2022-09-28T13:36:43.455Z,51.60
2022-09-28T13:39:52.251Z,51.50
2022-09-28T13:43:04.947Z,51.50
2022-09-28T13:45:58.848Z,51.00
2022-09-28T13:48:54.492Z,51.30
2022-09-28T13:52:02.722Z,51.30
2022-09-28T13:55:13.814Z,51.20
2022-09-28T13:58:04.572Z,51.20
2022-09-28T14:00:58.553Z,51.20
2022-09-28T14:03:58.764Z,51.10
2022-09-28T14:06:57.090Z,50.10
2022-09-28T14:09:47.602Z,50.80
2022-09-28T14:12:49.649Z,50.80
2022-09-28T14:15:46.691Z,50.90
2022-09-28T14:18:35.134Z,50.90
2022-09-28T14:21:58.147Z,50.80
2022-09-28T14:25:07.606Z,50.90
2022-09-28T14:28:28.221Z,50.70
2022-09-28T14:31:25.634Z,50.60
2022-09-28T14:34:28.651Z,50.40
2022-09-28T14:37:40.467Z,50.70
2022-09-28T14:40:50.090Z,50.80
2022-09-28T14:44:02.690Z,50.80
2022-09-28T14:46:50.222Z,50.90
2022-09-28T14:49:51.306Z,50.80
2022-09-28T14:52:47.016Z,50.80
2022-09-28T14:55:43.553Z,50.90
2022-09-28T14:58:33.815Z,51.00
2022-09-28T15:01:25.460Z,51.00
2022-09-28T15:04:14.859Z,51.00
2022-09-28T15:07:02.283Z,51.00
2022-09-28T15:09:51.378Z,50.70
2022-09-28T15:12:38.563Z,50.90
2022-09-28T15:15:31.898Z,50.90
2022-09-28T15:18:46.419Z,50.70
2022-09-28T15:21:37.845Z,51.30
2022-09-28T15:24:32.580Z,50.90
2022-09-28T15:27:19.813Z,50.90
2022-09-28T15:30:31.714Z,50.90
2022-09-28T15:33:46.394Z,50.70
2022-09-28T15:36:39.190Z,50.80
2022-09-28T15:39:32.053Z,50.60
2022-09-28T15:42:20.403Z,50.50
2022-09-28T15:45:26.726Z,50.60
2022-09-28T15:48:23.503Z,50.40
2022-09-28T15:51:13.023Z,50.30
2022-09-28T15:54:04.646Z,50.50
2022-09-28T15:56:54.821Z,50.80
2022-09-28T15:59:46.621Z,50.70
2022-09-28T16:02:34.037Z,50.70
2022-09-28T16:05:38.599Z,50.90
2022-09-28T16:08:42.165Z,50.90
2022-09-28T16:11:36.568Z,50.90
2022-09-28T16:14:27.266Z,50.90
2022-09-28T16:17:19.217Z,50.80
2022-09-28T16:20:24.833Z,50.70
2022-09-28T16:23:22.591Z,50.50
2022-09-28T16:26:18.466Z,50.40
2022-09-28T16:29:25.805Z,50.60
2022-09-28T16:32:41.846Z,50.50
2022-09-28T16:35:32.725Z,50.40
2022-09-28T16:38:20.962Z,50.30
2022-09-28T16:41:11.612Z,50.30
2022-09-28T16:44:04.596Z,50.20
2022-09-28T16:46:55.223Z,50.20
2022-09-28T16:49:42.693Z,50.20
2022-09-28T16:52:43.874Z,50.40
2022-09-28T16:55:46.464Z,50.40
2022-09-28T16:58:39.122Z,50.40
2022-09-28T17:01:26.625Z,50.40
2022-09-28T17:04:13.809Z,50.50
2022-09-28T17:07:01.393Z,50.40
2022-09-28T17:09:48.811Z,50.30
2022-09-28T17:12:36.532Z,50.40
2022-09-28T17:15:26.031Z,50.40
2022-09-28T17:18:15.098Z,50.30
2022-09-28T17:21:06.483Z,50.20
2022-09-28T17:23:53.991Z,50.10
2022-09-28T17:26:44.403Z,50.20
2022-09-28T17:29:32.760Z,50.20
2022-09-28T17:32:21.433Z,50.10
2022-09-28T17:35:24.141Z,50.10
2022-09-28T17:38:14.120Z,50.10
2022-09-28T17:41:01.419Z,50.10
2022-09-28T17:43:48.901Z,50.10
2022-09-28T17:46:38.831Z,49.90
2022-09-28T17:49:27.441Z,50.00
2022-09-28T17:52:14.696Z,49.90
2022-09-28T17:55:01.701Z,49.80
2022-09-28T17:57:48.974Z,49.70
2022-09-28T18:00:37.089Z,49.70
2022-09-28T18:03:26.153Z,49.60
2022-09-28T18:06:19.800Z,49.50
2022-09-28T18:09:08.786Z,49.40
2022-09-28T18:12:01.847Z,49.40
2022-09-28T18:14:49.113Z,49.30
2022-09-28T18:17:36.664Z,49.50
2022-09-28T18:20:23.735Z,49.50
2022-09-28T18:23:12.156Z,49.50
2022-09-28T18:25:59.178Z,49.50
2022-09-28T18:28:46.714Z,49.60
2022-09-28T18:31:34.056Z,49.50
2022-09-28T18:34:21.002Z,49.50
2022-09-28T18:37:10.462Z,49.80
2022-09-28T18:39:59.191Z,50.00
2022-09-28T18:42:46.555Z,50.10
2022-09-28T18:45:33.621Z,50.20
2022-09-28T18:48:20.779Z,50.20
2022-09-28T18:51:10.894Z,50.10
2022-09-28T18:53:58.079Z,50.20
2022-09-28T18:56:46.901Z,50.20
2022-09-28T18:59:34.361Z,50.20
2022-09-28T19:02:21.466Z,50.20
2022-09-28T19:05:09.801Z,50.20
2022-09-28T19:07:57.395Z,50.10
2022-09-28T19:10:48.627Z,50.20
2022-09-28T19:13:38.123Z,50.20
2022-09-28T19:16:28.482Z,50.00
2022-09-28T19:19:18.821Z,50.10
2022-09-28T19:22:06.656Z,50.10
2022-09-28T19:24:53.977Z,50.20
2022-09-28T19:27:41.115Z,50.30
2022-09-28T19:30:29.890Z,50.30
2022-09-28T19:33:17.561Z,50.40
2022-09-28T19:36:08.002Z,50.40
2022-09-28T19:38:55.338Z,50.40
2022-09-28T19:41:49.518Z,50.40
2022-09-28T19:44:37.348Z,50.50
2022-09-28T19:47:25.786Z,50.40
2022-09-28T19:50:13.238Z,50.40
2022-09-28T19:53:01.638Z,50.40
2022-09-28T19:55:53.713Z,50.50
2022-09-28T19:58:40.736Z,50.40
2022-09-28T20:01:28.009Z,50.50
2022-09-28T20:04:17.078Z,50.30
2022-09-28T20:07:04.502Z,50.40
2022-09-28T20:09:51.748Z,50.30
2022-09-28T20:12:38.800Z,50.20
2022-09-28T20:15:26.070Z,50.20
2022-09-28T20:18:13.329Z,50.30
2022-09-28T20:21:04.667Z,50.20
2022-09-28T20:23:53.664Z,50.30
2022-09-28T20:26:40.926Z,50.40
2022-09-28T20:29:27.943Z,50.30
2022-09-28T20:32:15.190Z,50.30
2022-09-28T20:35:02.683Z,50.30
2022-09-28T20:37:51.362Z,50.30
2022-09-28T20:40:41.142Z,50.30
2022-09-28T20:43:29.959Z,50.20
2022-09-28T20:46:19.321Z,50.20
2022-09-28T20:49:07.739Z,50.20
2022-09-28T20:51:55.089Z,50.20
2022-09-28T20:54:43.692Z,50.30
2022-09-28T20:57:31.240Z,50.20
2022-09-28T21:00:18.591Z,50.00
2022-09-28T21:03:06.415Z,49.80
2022-09-28T21:05:55.736Z,49.80
2022-09-28T21:08:44.270Z,49.90
2022-09-28T21:11:35.452Z,50.00
2022-09-28T21:14:24.037Z,50.00
2022-09-28T21:17:11.270Z,50.10
2022-09-28T21:19:58.598Z,50.20
2022-09-28T21:22:45.647Z,50.20
2022-09-28T21:25:32.714Z,50.10
2022-09-28T21:28:21.153Z,50.10
2022-09-28T21:31:11.672Z,50.10
2022-09-28T21:33:59.185Z,50.20
2022-09-28T21:36:47.714Z,50.30
2022-09-28T21:39:35.086Z,50.30
2022-09-28T21:42:22.108Z,50.40
2022-09-28T21:45:11.474Z,50.40
2022-09-28T21:48:00.046Z,50.40
2022-09-28T21:50:57.575Z,50.40
2022-09-28T21:53:45.879Z,50.20
2022-09-28T21:56:33.007Z,50.30
2022-09-28T21:59:20.437Z,50.40
2022-09-28T22:02:10.020Z,50.30
2022-09-28T22:04:58.114Z,50.10
2022-09-28T22:07:45.667Z,50.30
2022-09-28T22:10:32.736Z,50.30
2022-09-28T22:13:19.836Z,50.40
2022-09-28T22:16:07.535Z,50.30
2022-09-28T22:18:56.181Z,50.20
2022-09-28T22:21:43.337Z,50.20
2022-09-28T22:24:30.339Z,50.10
2022-09-28T22:27:17.387Z,50.20
2022-09-28T22:30:04.979Z,50.20
2022-09-28T22:32:52.297Z,50.30
2022-09-28T22:35:40.885Z,50.30
2022-09-28T22:38:28.173Z,50.30
2022-09-28T22:41:17.020Z,50.40
2022-09-28T22:44:04.042Z,50.40
2022-09-28T22:46:51.102Z,50.40
2022-09-28T22:49:38.880Z,50.30
2022-09-28T22:52:27.223Z,50.30
2022-09-28T22:55:14.358Z,50.30
2022-09-28T22:58:02.193Z,50.30
2022-09-28T23:00:49.548Z,50.20
2022-09-28T23:03:40.091Z,50.20
2022-09-28T23:06:29.124Z,50.20
2022-09-28T23:09:17.828Z,50.20
2022-09-28T23:12:05.235Z,50.20
2022-09-28T23:14:52.415Z,50.20
2022-09-28T23:17:39.462Z,50.10
2022-09-28T23:20:26.486Z,50.10
2022-09-28T23:23:15.089Z,50.10
2022-09-28T23:26:12.891Z,50.00
2022-09-28T23:29:01.018Z,50.00
2022-09-28T23:31:48.374Z,49.90
2022-09-28T23:34:35.480Z,49.80
2022-09-28T23:37:22.684Z,49.90
2022-09-28T23:40:10.684Z,50.00
2022-09-28T23:42:59.511Z,50.00
2022-09-28T23:45:47.383Z,49.90
2022-09-28T23:48:35.545Z,49.80
2022-09-28T23:51:23.244Z,49.80
2022-09-28T23:54:10.585Z,49.80
2022-09-28T23:56:57.524Z,49.70
2022-09-28T23:59:45.959Z,49.50
